Brownsville, Ohio
Current Conditions -  °F | °C
As of 3:54 PM on Friday 24 Oct 2014 (Local Time) from KVTA Reporting Station
Clear Clear  
Wind Chill: 63°   Ceiling: Unl
Heat Index: 63°   Visibility: 10mi
Dew Point: 39°   Wind: 3mph
Humidity: 41%   Direction: NA
Pressure: 30.03"   Gusts: NA
Location:  39.94°N, 82.25°W
Report Text: KVTA 241954Z AUTO VRB03KT 10SM CLR 17/04 A3003 RMK AO2 SLP169 T01720039
Loading
Personal Weather Stations






























Interactive Weather Map
Tropical Storm Tracking
New forecast layout! Learn more

10-Day Weather Forecast

Advertisements
Track Severe Weather on mobile